Mugan — 9HA2962 — position and weather

sailwx.info

Track history (hours):
 
Tides and Currents Weather Stations Pressure Air Temp Water Temp Dewpoint Dewpoint Depression Visibility Wind Speed Wind Dir Waves Ship Positions

Mugan

Last reported at 2018-Feb-15 17:12 UTC. Time now 2018-Feb-21 05:46 UTC.
Position N 39°24' W 000°18'.

Length 140 m; draft 3.4 m.

Type: Ship. MMSI: 256914000.

Date/timePositionNaut miles runAvg speedWind from/ knotsBaromVisibWave heightAir tempDewpointWater temp
2018-Feb-15 17:12N 39°24' W 000°18'0 0.0
2018-Feb-15 13:03N 39°24' W 000°18'0 0.0
2018-Feb-15 12:45N 39°24' W 000°18'0 0.0
2018-Feb-15 12:27N 39°24' W 000°18'0 0.0
2018-Feb-15 01:15N 39°24' W 000°18'0 0.0
2018-Feb-14 17:45N 39°24' W 000°18'0 0.0
2018-Feb-14 14:15N 39°24' W 000°17'0 0.0
2018-Feb-14 08:27N 39°23' W 000°17'0 0.0
2018-Feb-14 05:27N 39°24' W 000°17'0 0.0
2018-Feb-14 04:51N 39°24' W 000°18'0 0.0
2018-Feb-14 01:45N 39°24' W 000°18'0 0.0
2018-Feb-14 01:21N 39°24' W 000°17'0 0.0
2018-Feb-14 00:39N 39°24' W 000°17'0 0.0
2018-Feb-14 00:21N 39°24' W 000°18'0 0.1
2018-Feb-13 19:10N 39°24' W 000°17'2 6.7
2018-Feb-13 18:53N 39°26' W 000°17'2 0.6
2018-Feb-13 16:13N 39°27' W 000°18'0 0.1
2018-Feb-13 16:00N 39°27' W 000°18'4 4.8
2018-Feb-13 15:14N 39°24' W 000°17'0 1.0
2018-Feb-13 14:56N 39°24' W 000°18'0 0.1
2018-Feb-13 13:58N 39°24' W 000°18'0 0.0
2018-Feb-13 04:55N 39°24' W 000°18'0 0.0
2018-Feb-13 01:46N 39°23' W 000°18'0 0.0
2018-Feb-12 06:04N 39°24' W 000°18'0 0.0
2018-Feb-12 04:40N 39°24' W 000°18'0 0.0
2018-Feb-11 22:22N 39°24' W 000°18'0 0.0
2018-Feb-11 20:04N 39°24' W 000°18'0 0.0
2018-Feb-11 18:04N 39°24' W 000°18'0 0.0
2018-Feb-11 17:37N 39°24' W 000°18'0 0.0
2018-Feb-11 15:52N 39°24' W 000°18'0 0.0
2018-Feb-11 15:10N 39°24' W 000°18'0 0.0
2018-Feb-11 13:16N 39°24' W 000°18'0 0.0
2018-Feb-11 10:14N 39°24' W 000°18'0 0.0
2018-Feb-11 09:59N 39°24' W 000°18'0 0.0
2018-Feb-11 09:29N 39°24' W 000°18'0 0.0
2018-Feb-11 08:49N 39°24' W 000°18'0 0.0
2018-Feb-11 08:23N 39°24' W 000°18'0 0.0
2018-Feb-11 07:53N 39°24' W 000°18'0 0.1
2018-Feb-11 07:29N 39°24' W 000°18'0 0.0
2018-Feb-11 06:46N 39°24' W 000°18'0 0.0
2018-Feb-11 06:28N 39°24' W 000°18'0 0.0
2018-Feb-11 05:55N 39°24' W 000°18'0 0.0
2018-Feb-11 05:19N 39°24' W 000°18'0 0.1
2018-Feb-11 03:04N 39°23' W 000°18'0 0.0
2018-Feb-10 13:02N 39°23' W 000°18'0 0.9
2018-Feb-10 12:57N 39°23' W 000°18'105 6.0
2018-Feb-09 19:30N 37°39' W 000°26'4 8.9
2018-Feb-09 19:00N 37°35' W 000°29'4 8.7
2018-Feb-09 18:30N 37°32' W 000°33'17 8.3
2018-Feb-09 16:30N 37°20' W 000°47'  
2018-Feb-07 01:44N 37°14' W 001°03'  
Track history (hours):
 
Tides and Currents Weather Stations Pressure Air Temp Water Temp Dewpoint Dewpoint Depression Visibility Wind Speed Wind Dir Waves Ship Positions

Mugan

Last reported at 2018-Feb-15 17:12 UTC. Time now 2018-Feb-21 05:46 UTC.
Position N 39°24' W 000°18'.

Length 140 m; draft 3.4 m.

Type: Ship. MMSI: 256914000.

Date/timePositionNaut miles runAvg speedWind from/ knotsBaromVisibWave heightAir tempDewpointWater temp
2018-Feb-15 17:12N 39°24' W 000°18'0 0.0
2018-Feb-15 13:03N 39°24' W 000°18'0 0.0
2018-Feb-15 12:45N 39°24' W 000°18'0 0.0
2018-Feb-15 12:27N 39°24' W 000°18'0 0.0
2018-Feb-15 01:15N 39°24' W 000°18'0 0.0
2018-Feb-14 17:45N 39°24' W 000°18'0 0.0
2018-Feb-14 14:15N 39°24' W 000°17'0 0.0
2018-Feb-14 08:27N 39°23' W 000°17'0 0.0
2018-Feb-14 05:27N 39°24' W 000°17'0 0.0
2018-Feb-14 04:51N 39°24' W 000°18'0 0.0
2018-Feb-14 01:45N 39°24' W 000°18'0 0.0
2018-Feb-14 01:21N 39°24' W 000°17'0 0.0
2018-Feb-14 00:39N 39°24' W 000°17'0 0.0
2018-Feb-14 00:21N 39°24' W 000°18'0 0.1
2018-Feb-13 19:10N 39°24' W 000°17'2 6.7
2018-Feb-13 18:53N 39°26' W 000°17'2 0.6
2018-Feb-13 16:13N 39°27' W 000°18'0 0.1
2018-Feb-13 16:00N 39°27' W 000°18'4 4.8
2018-Feb-13 15:14N 39°24' W 000°17'0 1.0
2018-Feb-13 14:56N 39°24' W 000°18'0 0.1
2018-Feb-13 13:58N 39°24' W 000°18'0 0.0
2018-Feb-13 04:55N 39°24' W 000°18'0 0.0
2018-Feb-13 01:46N 39°23' W 000°18'0 0.0
2018-Feb-12 06:04N 39°24' W 000°18'0 0.0
2018-Feb-12 04:40N 39°24' W 000°18'0 0.0
2018-Feb-11 22:22N 39°24' W 000°18'0 0.0
2018-Feb-11 20:04N 39°24' W 000°18'0 0.0
2018-Feb-11 18:04N 39°24' W 000°18'0 0.0
2018-Feb-11 17:37N 39°24' W 000°18'0 0.0
2018-Feb-11 15:52N 39°24' W 000°18'0 0.0
2018-Feb-11 15:10N 39°24' W 000°18'0 0.0
2018-Feb-11 13:16N 39°24' W 000°18'0 0.0
2018-Feb-11 10:14N 39°24' W 000°18'0 0.0
2018-Feb-11 09:59N 39°24' W 000°18'0 0.0
2018-Feb-11 09:29N 39°24' W 000°18'0 0.0
2018-Feb-11 08:49N 39°24' W 000°18'0 0.0
2018-Feb-11 08:23N 39°24' W 000°18'0 0.0
2018-Feb-11 07:53N 39°24' W 000°18'0 0.1
2018-Feb-11 07:29N 39°24' W 000°18'0 0.0
2018-Feb-11 06:46N 39°24' W 000°18'0 0.0
2018-Feb-11 06:28N 39°24' W 000°18'0 0.0
2018-Feb-11 05:55N 39°24' W 000°18'0 0.0
2018-Feb-11 05:19N 39°24' W 000°18'0 0.1
2018-Feb-11 03:04N 39°23' W 000°18'0 0.0
2018-Feb-10 13:02N 39°23' W 000°18'0 0.9
2018-Feb-10 12:57N 39°23' W 000°18'105 6.0
2018-Feb-09 19:30N 37°39' W 000°26'4 8.9
2018-Feb-09 19:00N 37°35' W 000°29'4 8.7
2018-Feb-09 18:30N 37°32' W 000°33'17 8.3
2018-Feb-09 16:30N 37°20' W 000°47'  
2018-Feb-07 01:44N 37°14' W 001°03'  

Dump ship's entire track history